MMLM/LMM METAR and TAF weather

Enter ICAO airport designator
Station Type Date Time Source
MMLM METAR 2021/09/24 02:40 UTC NOAA

MMLM 240240Z 26004KT 10SM FEW220 30/24 A2985 RMK SLP109 8/001


Station Type Date Time Source
MMLM Decoded METAR 2021/09/24 02:40 UTC NOAA

Los Mochis Airport, Mexico (MMLM) 25-41N 109-05W
Sep 23, 2021 - 10:40 PM EDT / 2021.09.24 0240 UTC
Wind: from the W (260 degrees) at 5 MPH (4 KT):0
Visibility: 10 mile(s):0
Sky conditions: mostly clear
Temperature: 86 F (30 C)
Heat index: 95.0 F (35.0 C):1
Dew Point: 75 F (24 C)
Relative Humidity: 70%
Pressure (altimeter): 29.85 in. Hg (1010 hPa)
ob: MMLM 240240Z 26004KT 10SM FEW220 30/24 A2985 RMK SLP109 8/001
cycle: 2

Station Type Date Time Source
MMLM TAF 2021/09/24 06:56 UTC NOAA

TAF MMLM 240449Z 2406/2506 26005KT P6SM SCT200
FM241800 22010KT P6SM SCT030 SCT200
FM250300 23005KT P6SM SCT200

Example: see airport list